sensor_id;sensor_type;location;lat;lon;timestamp;P1;durP1;ratioP1;P2;durP2;ratioP2
57101;SDS011;42982;54.558;18.508;2022-12-18T00:00:06;38.33;;;12.53;;
57101;SDS011;42982;54.558;18.508;2022-12-18T00:01:18;32.93;;;12.00;;
57101;SDS011;42982;54.558;18.508;2022-12-18T00:02:26;30.53;;;11.47;;
57101;SDS011;42982;54.558;18.508;2022-12-18T00:03:29;36.37;;;11.77;;
57101;SDS011;42982;54.558;18.508;2022-12-18T00:04:31;30.10;;;11.40;;
57101;SDS011;42982;54.558;18.508;2022-12-18T00:05:34;33.47;;;12.10;;
57101;SDS011;42982;54.558;18.508;2022-12-18T00:06:37;37.20;;;12.00;;
57101;SDS011;42982;54.558;18.508;2022-12-18T00:07:40;29.93;;;10.80;;
57101;SDS011;42982;54.558;18.508;2022-12-18T00:08:45;44.27;;;12.13;;
57101;SDS011;42982;54.558;18.508;2022-12-18T00:09:48;33.30;;;12.30;;
57101;SDS011;42982;54.558;18.508;2022-12-18T00:10:50;36.67;;;11.77;;
57101;SDS011;42982;54.558;18.508;2022-12-18T00:11:53;32.30;;;12.00;;
57101;SDS011;42982;54.558;18.508;2022-12-18T00:12:56;38.57;;;11.70;;
57101;SDS011;42982;54.558;18.508;2022-12-18T00:13:59;31.93;;;12.53;;
57101;SDS011;42982;54.558;18.508;2022-12-18T00:15:04;34.80;;;11.40;;
57101;SDS011;42982;54.558;18.508;2022-12-18T00:16:10;33.50;;;11.67;;
57101;SDS011;42982;54.558;18.508;2022-12-18T00:17:13;37.00;;;13.73;;
57101;SDS011;42982;54.558;18.508;2022-12-18T00:18:18;41.23;;;14.57;;
57101;SDS011;42982;54.558;18.508;2022-12-18T00:19:21;50.77;;;16.27;;
57101;SDS011;42982;54.558;18.508;2022-12-18T00:20:24;55.93;;;19.10;;
57101;SDS011;42982;54.558;18.508;2022-12-18T00:21:27;65.87;;;19.37;;
57101;SDS011;42982;54.558;18.508;2022-12-18T00:22:32;56.33;;;18.63;;
57101;SDS011;42982;54.558;18.508;2022-12-18T00:23:34;64.23;;;20.50;;
57101;SDS011;42982;54.558;18.508;2022-12-18T00:24:40;66.23;;;21.10;;
57101;SDS011;42982;54.558;18.508;2022-12-18T00:25:44;69.10;;;21.67;;
57101;SDS011;42982;54.558;18.508;2022-12-18T00:26:47;76.13;;;22.10;;
57101;SDS011;42982;54.558;18.508;2022-12-18T00:27:49;79.20;;;23.67;;
57101;SDS011;42982;54.558;18.508;2022-12-18T00:28:52;75.93;;;23.27;;
57101;SDS011;42982;54.558;18.508;2022-12-18T00:29:56;70.33;;;22.40;;
57101;SDS011;42982;54.558;18.508;2022-12-18T00:31:02;65.63;;;21.30;;
57101;SDS011;42982;54.558;18.508;2022-12-18T00:32:05;59.97;;;21.33;;
57101;SDS011;42982;54.558;18.508;2022-12-18T00:33:12;67.87;;;21.80;;
57101;SDS011;42982;54.558;18.508;2022-12-18T00:34:20;68.83;;;21.90;;
57101;SDS011;42982;54.558;18.508;2022-12-18T00:35:24;65.27;;;20.67;;
57101;SDS011;42982;54.558;18.508;2022-12-18T00:36:28;68.70;;;21.13;;
57101;SDS011;42982;54.558;18.508;2022-12-18T00:37:35;65.67;;;19.77;;
57101;SDS011;42982;54.558;18.508;2022-12-18T00:38:39;72.27;;;21.17;;
57101;SDS011;42982;54.558;18.508;2022-12-18T00:39:41;65.83;;;19.70;;
57101;SDS011;42982;54.558;18.508;2022-12-18T00:40:46;52.00;;;18.30;;
57101;SDS011;42982;54.558;18.508;2022-12-18T00:41:52;52.10;;;16.00;;
57101;SDS011;42982;54.558;18.508;2022-12-18T00:43:13;59.53;;;17.73;;
57101;SDS011;42982;54.558;18.508;2022-12-18T00:44:17;53.37;;;16.53;;
57101;SDS011;42982;54.558;18.508;2022-12-18T00:45:20;59.97;;;17.70;;
57101;SDS011;42982;54.558;18.508;2022-12-18T00:46:22;48.80;;;16.23;;
57101;SDS011;42982;54.558;18.508;2022-12-18T00:47:25;44.57;;;14.87;;
57101;SDS011;42982;54.558;18.508;2022-12-18T00:48:27;54.53;;;16.07;;
57101;SDS011;42982;54.558;18.508;2022-12-18T00:49:30;51.90;;;16.40;;
57101;SDS011;42982;54.558;18.508;2022-12-18T00:50:33;45.43;;;14.70;;
57101;SDS011;42982;54.558;18.508;2022-12-18T00:51:35;42.97;;;14.03;;
57101;SDS011;42982;54.558;18.508;2022-12-18T00:52:38;38.07;;;12.07;;
57101;SDS011;42982;54.558;18.508;2022-12-18T00:53:41;34.97;;;11.60;;
57101;SDS011;42982;54.558;18.508;2022-12-18T00:54:46;38.87;;;12.70;;
57101;SDS011;42982;54.558;18.508;2022-12-18T00:55:53;32.87;;;12.30;;
57101;SDS011;42982;54.558;18.508;2022-12-18T00:56:59;33.93;;;11.03;;
57101;SDS011;42982;54.558;18.508;2022-12-18T00:58:02;27.87;;;10.13;;
57101;SDS011;42982;54.558;18.508;2022-12-18T00:59:07;28.97;;;10.77;;
57101;SDS011;42982;54.558;18.508;2022-12-18T01:00:12;38.13;;;11.53;;
57101;SDS011;42982;54.558;18.508;2022-12-18T01:01:17;38.27;;;13.87;;
57101;SDS011;42982;54.558;18.508;2022-12-18T01:02:22;38.30;;;12.70;;
57101;SDS011;42982;54.558;18.508;2022-12-18T01:03:27;34.20;;;11.27;;
57101;SDS011;42982;54.558;18.508;2022-12-18T01:04:30;32.33;;;11.10;;
57101;SDS011;42982;54.558;18.508;2022-12-18T01:05:33;28.87;;;10.53;;
57101;SDS011;42982;54.558;18.508;2022-12-18T01:06:39;32.50;;;10.97;;
57101;SDS011;42982;54.558;18.508;2022-12-18T01:07:43;37.20;;;11.53;;
57101;SDS011;42982;54.558;18.508;2022-12-18T01:08:45;30.80;;;11.10;;
57101;SDS011;42982;54.558;18.508;2022-12-18T01:09:48;31.33;;;11.13;;
57101;SDS011;42982;54.558;18.508;2022-12-18T01:10:51;32.43;;;10.47;;
57101;SDS011;42982;54.558;18.508;2022-12-18T01:11:53;37.20;;;13.13;;
57101;SDS011;42982;54.558;18.508;2022-12-18T01:12:55;30.17;;;10.53;;
57101;SDS011;42982;54.558;18.508;2022-12-18T01:13:58;24.57;;;10.10;;
57101;SDS011;42982;54.558;18.508;2022-12-18T01:15:02;30.83;;;10.40;;
57101;SDS011;42982;54.558;18.508;2022-12-18T01:16:07;27.83;;;9.70;;
57101;SDS011;42982;54.558;18.508;2022-12-18T01:17:11;32.93;;;11.20;;
57101;SDS011;42982;54.558;18.508;2022-12-18T01:18:14;26.30;;;10.13;;
57101;SDS011;42982;54.558;18.508;2022-12-18T01:19:16;28.00;;;10.33;;
57101;SDS011;42982;54.558;18.508;2022-12-18T01:20:24;33.33;;;10.90;;
57101;SDS011;42982;54.558;18.508;2022-12-18T01:21:25;27.97;;;10.07;;
57101;SDS011;42982;54.558;18.508;2022-12-18T01:22:30;25.10;;;9.27;;
57101;SDS011;42982;54.558;18.508;2022-12-18T01:23:33;29.33;;;10.40;;
57101;SDS011;42982;54.558;18.508;2022-12-18T01:24:35;30.77;;;10.80;;
57101;SDS011;42982;54.558;18.508;2022-12-18T01:25:38;25.50;;;9.57;;
57101;SDS011;42982;54.558;18.508;2022-12-18T01:26:45;25.70;;;9.57;;
57101;SDS011;42982;54.558;18.508;2022-12-18T01:27:50;26.07;;;8.43;;
57101;SDS011;42982;54.558;18.508;2022-12-18T01:28:54;29.10;;;9.83;;
57101;SDS011;42982;54.558;18.508;2022-12-18T01:29:57;26.63;;;10.63;;
57101;SDS011;42982;54.558;18.508;2022-12-18T01:32:19;31.60;;;10.37;;
57101;SDS011;42982;54.558;18.508;2022-12-18T01:33:25;29.97;;;9.97;;
57101;SDS011;42982;54.558;18.508;2022-12-18T01:34:27;27.27;;;10.43;;
57101;SDS011;42982;54.558;18.508;2022-12-18T01:35:30;30.17;;;10.13;;
57101;SDS011;42982;54.558;18.508;2022-12-18T01:36:34;25.77;;;10.67;;
57101;SDS011;42982;54.558;18.508;2022-12-18T01:37:43;26.47;;;9.37;;
57101;SDS011;42982;54.558;18.508;2022-12-18T01:38:46;26.17;;;10.03;;
57101;SDS011;42982;54.558;18.508;2022-12-18T01:39:53;30.90;;;10.97;;
57101;SDS011;42982;54.558;18.508;2022-12-18T01:40:59;26.97;;;10.57;;
57101;SDS011;42982;54.558;18.508;2022-12-18T01:42:05;33.73;;;10.83;;
57101;SDS011;42982;54.558;18.508;2022-12-18T01:43:12;28.83;;;11.23;;
57101;SDS011;42982;54.558;18.508;2022-12-18T01:46:11;31.63;;;10.17;;
57101;SDS011;42982;54.558;18.508;2022-12-18T01:48:42;25.23;;;9.27;;
57101;SDS011;42982;54.558;18.508;2022-12-18T01:49:48;33.83;;;11.50;;
57101;SDS011;42982;54.558;18.508;2022-12-18T01:50:50;32.73;;;11.23;;
57101;SDS011;42982;54.558;18.508;2022-12-18T01:51:52;32.07;;;11.40;;
57101;SDS011;42982;54.558;18.508;2022-12-18T01:53:14;32.13;;;11.10;;
57101;SDS011;42982;54.558;18.508;2022-12-18T01:54:20;37.13;;;12.37;;
57101;SDS011;42982;54.558;18.508;2022-12-18T01:55:24;38.90;;;11.73;;
57101;SDS011;42982;54.558;18.508;2022-12-18T01:56:29;33.67;;;11.87;;
57101;SDS011;42982;54.558;18.508;2022-12-18T01:57:37;40.90;;;12.47;;
57101;SDS011;42982;54.558;18.508;2022-12-18T01:59:55;32.07;;;11.57;;
57101;SDS011;42982;54.558;18.508;2022-12-18T02:01:21;29.07;;;9.77;;
57101;SDS011;42982;54.558;18.508;2022-12-18T02:02:29;33.67;;;10.67;;
57101;SDS011;42982;54.558;18.508;2022-12-18T02:03:36;32.33;;;10.88;;
57101;SDS011;42982;54.558;18.508;2022-12-18T02:04:39;41.90;;;11.67;;
57101;SDS011;42982;54.558;18.508;2022-12-18T02:09:26;32.30;;;10.07;;
57101;SDS011;42982;54.558;18.508;2022-12-18T02:11:46;30.10;;;10.07;;
57101;SDS011;42982;54.558;18.508;2022-12-18T02:14:33;30.87;;;10.33;;
57101;SDS011;42982;54.558;18.508;2022-12-18T02:16:09;36.83;;;9.37;;
57101;SDS011;42982;54.558;18.508;2022-12-18T02:17:26;28.97;;;9.80;;
57101;SDS011;42982;54.558;18.508;2022-12-18T02:18:38;26.30;;;9.90;;
57101;SDS011;42982;54.558;18.508;2022-12-18T02:20:28;29.00;;;10.73;;
57101;SDS011;42982;54.558;18.508;2022-12-18T02:24:42;29.73;;;9.90;;
57101;SDS011;42982;54.558;18.508;2022-12-18T02:26:59;26.40;;;9.57;;
57101;SDS011;42982;54.558;18.508;2022-12-18T02:28:07;26.77;;;10.13;;
57101;SDS011;42982;54.558;18.508;2022-12-18T02:29:17;25.40;;;9.60;;
57101;SDS011;42982;54.558;18.508;2022-12-18T02:30:28;26.43;;;9.03;;
57101;SDS011;42982;54.558;18.508;2022-12-18T02:31:43;27.50;;;9.55;;
57101;SDS011;42982;54.558;18.508;2022-12-18T02:32:50;28.07;;;8.83;;
57101;SDS011;42982;54.558;18.508;2022-12-18T02:33:55;27.60;;;9.07;;
57101;SDS011;42982;54.558;18.508;2022-12-18T02:35:03;29.30;;;9.53;;
57101;SDS011;42982;54.558;18.508;2022-12-18T02:36:08;31.57;;;10.30;;
57101;SDS011;42982;54.558;18.508;2022-12-18T02:37:15;28.80;;;10.50;;
57101;SDS011;42982;54.558;18.508;2022-12-18T02:38:19;29.63;;;10.53;;
57101;SDS011;42982;54.558;18.508;2022-12-18T02:39:25;28.13;;;9.53;;
57101;SDS011;42982;54.558;18.508;2022-12-18T02:40:37;27.40;;;9.83;;
57101;SDS011;42982;54.558;18.508;2022-12-18T02:41:40;27.53;;;10.30;;
57101;SDS011;42982;54.558;18.508;2022-12-18T02:42:46;28.73;;;10.20;;
57101;SDS011;42982;54.558;18.508;2022-12-18T02:43:56;29.90;;;9.80;;
57101;SDS011;42982;54.558;18.508;2022-12-18T02:45:05;21.93;;;8.87;;
57101;SDS011;42982;54.558;18.508;2022-12-18T02:46:20;25.13;;;9.82;;
57101;SDS011;42982;54.558;18.508;2022-12-18T02:47:27;26.33;;;9.60;;
57101;SDS011;42982;54.558;18.508;2022-12-18T02:48:35;26.10;;;9.30;;
57101;SDS011;42982;54.558;18.508;2022-12-18T02:49:48;25.40;;;8.43;;
57101;SDS011;42982;54.558;18.508;2022-12-18T02:51:03;28.40;;;9.23;;
57101;SDS011;42982;54.558;18.508;2022-12-18T02:54:09;23.70;;;9.03;;
57101;SDS011;42982;54.558;18.508;2022-12-18T02:56:46;29.50;;;8.67;;
57101;SDS011;42982;54.558;18.508;2022-12-18T02:57:55;27.93;;;8.50;;
57101;SDS011;42982;54.558;18.508;2022-12-18T02:59:15;25.43;;;8.13;;
57101;SDS011;42982;54.558;18.508;2022-12-18T03:00:31;23.73;;;8.20;;
57101;SDS011;42982;54.558;18.508;2022-12-18T03:02:51;24.30;;;8.23;;
57101;SDS011;42982;54.558;18.508;2022-12-18T03:03:56;22.40;;;8.30;;
57101;SDS011;42982;54.558;18.508;2022-12-18T03:06:52;21.10;;;7.10;;
57101;SDS011;42982;54.558;18.508;2022-12-18T03:08:00;25.20;;;7.77;;
57101;SDS011;42982;54.558;18.508;2022-12-18T03:09:25;23.20;;;7.73;;
57101;SDS011;42982;54.558;18.508;2022-12-18T03:10:34;23.13;;;7.78;;
57101;SDS011;42982;54.558;18.508;2022-12-18T03:11:42;22.38;;;7.18;;
57101;SDS011;42982;54.558;18.508;2022-12-18T03:13:13;20.77;;;7.87;;
57101;SDS011;42982;54.558;18.508;2022-12-18T03:14:27;21.50;;;7.60;;
57101;SDS011;42982;54.558;18.508;2022-12-18T03:15:38;18.30;;;6.30;;
57101;SDS011;42982;54.558;18.508;2022-12-18T03:17:03;18.43;;;7.40;;
57101;SDS011;42982;54.558;18.508;2022-12-18T03:18:19;18.30;;;6.40;;
57101;SDS011;42982;54.558;18.508;2022-12-18T03:19:29;21.93;;;7.60;;
57101;SDS011;42982;54.558;18.508;2022-12-18T03:20:35;19.40;;;7.37;;
57101;SDS011;42982;54.558;18.508;2022-12-18T03:21:42;20.37;;;7.23;;
57101;SDS011;42982;54.558;18.508;2022-12-18T03:22:50;20.90;;;7.37;;
57101;SDS011;42982;54.558;18.508;2022-12-18T03:23:55;18.27;;;7.03;;
57101;SDS011;42982;54.558;18.508;2022-12-18T03:25:03;21.53;;;7.53;;
57101;SDS011;42982;54.558;18.508;2022-12-18T03:26:09;22.93;;;7.23;;
57101;SDS011;42982;54.558;18.508;2022-12-18T03:27:16;17.63;;;6.73;;
57101;SDS011;42982;54.558;18.508;2022-12-18T03:28:20;25.63;;;6.70;;
57101;SDS011;42982;54.558;18.508;2022-12-18T03:29:33;16.53;;;6.83;;
57101;SDS011;42982;54.558;18.508;2022-12-18T03:30:55;16.93;;;6.60;;
57101;SDS011;42982;54.558;18.508;2022-12-18T03:32:05;20.40;;;6.90;;
57101;SDS011;42982;54.558;18.508;2022-12-18T03:33:24;22.38;;;7.38;;
57101;SDS011;42982;54.558;18.508;2022-12-18T03:34:33;20.43;;;6.47;;
57101;SDS011;42982;54.558;18.508;2022-12-18T03:35:41;17.90;;;6.27;;
57101;SDS011;42982;54.558;18.508;2022-12-18T03:36:46;19.87;;;7.20;;
57101;SDS011;42982;54.558;18.508;2022-12-18T03:37:49;14.33;;;5.73;;
57101;SDS011;42982;54.558;18.508;2022-12-18T03:38:52;21.63;;;6.60;;
57101;SDS011;42982;54.558;18.508;2022-12-18T03:39:58;18.63;;;5.67;;
57101;SDS011;42982;54.558;18.508;2022-12-18T03:41:26;16.15;;;6.28;;
57101;SDS011;42982;54.558;18.508;2022-12-18T03:42:52;21.37;;;6.13;;
57101;SDS011;42982;54.558;18.508;2022-12-18T03:44:15;14.40;;;6.13;;
57101;SDS011;42982;54.558;18.508;2022-12-18T03:45:42;20.10;;;5.72;;
57101;SDS011;42982;54.558;18.508;2022-12-18T03:46:58;21.47;;;7.30;;
57101;SDS011;42982;54.558;18.508;2022-12-18T03:48:32;17.02;;;6.30;;
57101;SDS011;42982;54.558;18.508;2022-12-18T03:51:00;17.07;;;6.37;;
57101;SDS011;42982;54.558;18.508;2022-12-18T03:52:33;15.97;;;5.63;;
57101;SDS011;42982;54.558;18.508;2022-12-18T03:54:53;18.50;;;6.33;;
57101;SDS011;42982;54.558;18.508;2022-12-18T03:55:59;16.87;;;5.97;;
57101;SDS011;42982;54.558;18.508;2022-12-18T03:58:18;15.80;;;5.95;;
57101;SDS011;42982;54.558;18.508;2022-12-18T03:59:40;20.53;;;5.63;;
57101;SDS011;42982;54.558;18.508;2022-12-18T04:00:54;18.43;;;6.23;;
57101;SDS011;42982;54.558;18.508;2022-12-18T04:01:57;17.47;;;5.70;;
57101;SDS011;42982;54.558;18.508;2022-12-18T04:03:03;21.77;;;5.90;;
57101;SDS011;42982;54.558;18.508;2022-12-18T04:04:15;19.83;;;6.10;;
57101;SDS011;42982;54.558;18.508;2022-12-18T04:05:20;20.43;;;6.50;;
57101;SDS011;42982;54.558;18.508;2022-12-18T04:06:27;22.50;;;6.80;;
57101;SDS011;42982;54.558;18.508;2022-12-18T04:07:31;17.67;;;6.23;;
57101;SDS011;42982;54.558;18.508;2022-12-18T04:08:34;14.97;;;5.87;;
57101;SDS011;42982;54.558;18.508;2022-12-18T04:09:40;20.97;;;6.00;;
57101;SDS011;42982;54.558;18.508;2022-12-18T04:11:52;13.57;;;5.70;;
57101;SDS011;42982;54.558;18.508;2022-12-18T04:12:57;18.27;;;5.50;;
57101;SDS011;42982;54.558;18.508;2022-12-18T04:14:04;18.02;;;6.90;;
57101;SDS011;42982;54.558;18.508;2022-12-18T04:15:07;17.77;;;5.57;;
57101;SDS011;42982;54.558;18.508;2022-12-18T04:16:10;15.93;;;5.57;;
57101;SDS011;42982;54.558;18.508;2022-12-18T04:17:15;17.37;;;6.30;;
57101;SDS011;42982;54.558;18.508;2022-12-18T04:18:21;18.20;;;5.53;;
57101;SDS011;42982;54.558;18.508;2022-12-18T04:19:26;15.50;;;5.20;;
57101;SDS011;42982;54.558;18.508;2022-12-18T04:20:30;15.43;;;5.43;;
57101;SDS011;42982;54.558;18.508;2022-12-18T04:21:36;13.93;;;5.23;;
57101;SDS011;42982;54.558;18.508;2022-12-18T04:22:41;19.03;;;5.73;;
57101;SDS011;42982;54.558;18.508;2022-12-18T04:23:43;16.50;;;5.97;;
57101;SDS011;42982;54.558;18.508;2022-12-18T04:24:47;17.63;;;6.10;;
57101;SDS011;42982;54.558;18.508;2022-12-18T04:25:58;13.83;;;5.63;;
57101;SDS011;42982;54.558;18.508;2022-12-18T04:27:44;18.03;;;5.90;;
57101;SDS011;42982;54.558;18.508;2022-12-18T04:28:49;16.80;;;5.47;;
57101;SDS011;42982;54.558;18.508;2022-12-18T04:29:55;16.37;;;5.57;;
57101;SDS011;42982;54.558;18.508;2022-12-18T04:30:58;15.77;;;5.77;;
57101;SDS011;42982;54.558;18.508;2022-12-18T04:32:00;15.47;;;5.77;;
57101;SDS011;42982;54.558;18.508;2022-12-18T04:33:03;18.30;;;5.70;;
57101;SDS011;42982;54.558;18.508;2022-12-18T04:34:13;15.73;;;5.60;;
57101;SDS011;42982;54.558;18.508;2022-12-18T04:35:24;19.30;;;6.10;;
57101;SDS011;42982;54.558;18.508;2022-12-18T04:36:26;16.90;;;6.17;;
57101;SDS011;42982;54.558;18.508;2022-12-18T04:37:29;16.47;;;5.50;;
57101;SDS011;42982;54.558;18.508;2022-12-18T04:38:36;18.00;;;5.70;;
57101;SDS011;42982;54.558;18.508;2022-12-18T04:39:42;14.30;;;5.30;;
57101;SDS011;42982;54.558;18.508;2022-12-18T04:40:54;13.40;;;5.50;;
57101;SDS011;42982;54.558;18.508;2022-12-18T04:42:01;17.80;;;5.53;;
57101;SDS011;42982;54.558;18.508;2022-12-18T04:43:03;17.87;;;6.40;;
57101;SDS011;42982;54.558;18.508;2022-12-18T04:44:08;15.03;;;5.57;;
57101;SDS011;42982;54.558;18.508;2022-12-18T04:45:11;15.10;;;5.67;;
57101;SDS011;42982;54.558;18.508;2022-12-18T04:46:13;18.47;;;5.67;;
57101;SDS011;42982;54.558;18.508;2022-12-18T04:47:17;16.23;;;5.77;;
57101;SDS011;42982;54.558;18.508;2022-12-18T04:48:20;14.20;;;4.70;;
57101;SDS011;42982;54.558;18.508;2022-12-18T04:49:23;11.57;;;4.47;;
57101;SDS011;42982;54.558;18.508;2022-12-18T04:50:25;18.43;;;5.53;;
57101;SDS011;42982;54.558;18.508;2022-12-18T04:51:27;16.33;;;5.23;;
57101;SDS011;42982;54.558;18.508;2022-12-18T04:52:29;19.13;;;6.00;;
57101;SDS011;42982;54.558;18.508;2022-12-18T04:53:34;15.43;;;5.20;;
57101;SDS011;42982;54.558;18.508;2022-12-18T04:54:36;18.20;;;5.60;;
57101;SDS011;42982;54.558;18.508;2022-12-18T04:55:39;17.87;;;5.77;;
57101;SDS011;42982;54.558;18.508;2022-12-18T04:56:42;18.10;;;6.00;;
57101;SDS011;42982;54.558;18.508;2022-12-18T04:57:50;19.50;;;5.73;;
57101;SDS011;42982;54.558;18.508;2022-12-18T04:58:55;17.43;;;5.70;;
57101;SDS011;42982;54.558;18.508;2022-12-18T04:59:57;15.03;;;5.57;;
57101;SDS011;42982;54.558;18.508;2022-12-18T05:01:00;16.43;;;5.40;;
57101;SDS011;42982;54.558;18.508;2022-12-18T05:02:05;13.13;;;5.43;;
57101;SDS011;42982;54.558;18.508;2022-12-18T05:03:07;11.77;;;5.23;;
57101;SDS011;42982;54.558;18.508;2022-12-18T05:04:10;16.77;;;5.30;;
57101;SDS011;42982;54.558;18.508;2022-12-18T05:05:12;12.27;;;4.87;;
57101;SDS011;42982;54.558;18.508;2022-12-18T05:06:16;13.93;;;4.80;;
57101;SDS011;42982;54.558;18.508;2022-12-18T05:07:21;13.23;;;5.80;;
57101;SDS011;42982;54.558;18.508;2022-12-18T05:08:25;12.77;;;4.07;;
57101;SDS011;42982;54.558;18.508;2022-12-18T05:09:27;14.03;;;4.50;;
57101;SDS011;42982;54.558;18.508;2022-12-18T05:10:32;12.10;;;3.97;;
57101;SDS011;42982;54.558;18.508;2022-12-18T05:11:37;12.77;;;5.13;;
57101;SDS011;42982;54.558;18.508;2022-12-18T05:12:39;12.87;;;4.53;;
57101;SDS011;42982;54.558;18.508;2022-12-18T05:13:58;9.07;;;3.85;;
57101;SDS011;42982;54.558;18.508;2022-12-18T05:15:00;10.37;;;3.90;;
57101;SDS011;42982;54.558;18.508;2022-12-18T05:16:04;10.73;;;4.17;;
57101;SDS011;42982;54.558;18.508;2022-12-18T05:17:09;16.33;;;5.07;;
57101;SDS011;42982;54.558;18.508;2022-12-18T05:18:11;9.07;;;4.03;;
57101;SDS011;42982;54.558;18.508;2022-12-18T05:19:15;10.37;;;4.03;;
57101;SDS011;42982;54.558;18.508;2022-12-18T05:20:18;12.10;;;4.27;;
57101;SDS011;42982;54.558;18.508;2022-12-18T05:21:20;10.90;;;4.50;;
57101;SDS011;42982;54.558;18.508;2022-12-18T05:22:26;11.70;;;4.30;;
57101;SDS011;42982;54.558;18.508;2022-12-18T05:23:31;11.43;;;4.13;;
57101;SDS011;42982;54.558;18.508;2022-12-18T05:24:37;9.30;;;4.60;;
57101;SDS011;42982;54.558;18.508;2022-12-18T05:25:39;15.10;;;4.57;;
57101;SDS011;42982;54.558;18.508;2022-12-18T05:26:41;10.60;;;3.73;;
57101;SDS011;42982;54.558;18.508;2022-12-18T05:27:44;10.20;;;3.37;;
57101;SDS011;42982;54.558;18.508;2022-12-18T05:28:48;10.07;;;3.50;;
57101;SDS011;42982;54.558;18.508;2022-12-18T05:29:53;9.63;;;4.13;;
57101;SDS011;42982;54.558;18.508;2022-12-18T05:30:57;8.77;;;3.30;;
57101;SDS011;42982;54.558;18.508;2022-12-18T05:32:02;9.77;;;3.87;;
57101;SDS011;42982;54.558;18.508;2022-12-18T05:33:06;17.93;;;3.80;;
57101;SDS011;42982;54.558;18.508;2022-12-18T05:34:10;12.07;;;3.90;;
57101;SDS011;42982;54.558;18.508;2022-12-18T05:35:12;9.70;;;3.80;;
57101;SDS011;42982;54.558;18.508;2022-12-18T05:36:18;8.67;;;3.73;;
57101;SDS011;42982;54.558;18.508;2022-12-18T05:37:21;11.67;;;3.30;;
57101;SDS011;42982;54.558;18.508;2022-12-18T05:38:25;8.07;;;3.30;;
57101;SDS011;42982;54.558;18.508;2022-12-18T05:39:32;8.20;;;3.50;;
57101;SDS011;42982;54.558;18.508;2022-12-18T05:40:34;9.47;;;3.60;;
57101;SDS011;42982;54.558;18.508;2022-12-18T05:41:39;10.10;;;3.40;;
57101;SDS011;42982;54.558;18.508;2022-12-18T05:42:42;7.60;;;3.13;;
57101;SDS011;42982;54.558;18.508;2022-12-18T05:43:47;8.57;;;3.53;;
57101;SDS011;42982;54.558;18.508;2022-12-18T05:44:50;8.53;;;3.37;;
57101;SDS011;42982;54.558;18.508;2022-12-18T05:45:55;10.77;;;2.97;;
57101;SDS011;42982;54.558;18.508;2022-12-18T05:46:58;13.23;;;3.57;;
57101;SDS011;42982;54.558;18.508;2022-12-18T05:48:01;8.17;;;3.07;;
57101;SDS011;42982;54.558;18.508;2022-12-18T05:49:04;7.57;;;3.57;;
57101;SDS011;42982;54.558;18.508;2022-12-18T05:50:07;9.77;;;3.63;;
57101;SDS011;42982;54.558;18.508;2022-12-18T05:51:13;9.47;;;3.00;;
57101;SDS011;42982;54.558;18.508;2022-12-18T05:52:19;7.23;;;2.80;;
57101;SDS011;42982;54.558;18.508;2022-12-18T05:53:22;11.93;;;3.33;;
57101;SDS011;42982;54.558;18.508;2022-12-18T05:54:26;9.33;;;3.20;;
57101;SDS011;42982;54.558;18.508;2022-12-18T05:55:29;8.93;;;3.07;;
57101;SDS011;42982;54.558;18.508;2022-12-18T05:56:35;8.47;;;3.57;;
57101;SDS011;42982;54.558;18.508;2022-12-18T05:57:40;9.33;;;3.30;;
57101;SDS011;42982;54.558;18.508;2022-12-18T05:58:43;9.87;;;3.10;;
57101;SDS011;42982;54.558;18.508;2022-12-18T05:59:46;13.30;;;3.83;;
57101;SDS011;42982;54.558;18.508;2022-12-18T06:00:51;8.23;;;3.43;;
57101;SDS011;42982;54.558;18.508;2022-12-18T06:01:53;15.23;;;3.47;;
57101;SDS011;42982;54.558;18.508;2022-12-18T06:02:55;7.33;;;3.00;;
57101;SDS011;42982;54.558;18.508;2022-12-18T06:03:57;10.10;;;3.07;;
57101;SDS011;42982;54.558;18.508;2022-12-18T06:04:59;10.80;;;3.33;;
57101;SDS011;42982;54.558;18.508;2022-12-18T06:06:02;8.13;;;3.50;;
57101;SDS011;42982;54.558;18.508;2022-12-18T06:07:07;8.13;;;2.97;;
57101;SDS011;42982;54.558;18.508;2022-12-18T06:08:10;11.30;;;3.47;;
57101;SDS011;42982;54.558;18.508;2022-12-18T06:09:14;7.40;;;2.90;;
57101;SDS011;42982;54.558;18.508;2022-12-18T06:10:16;11.23;;;3.63;;
57101;SDS011;42982;54.558;18.508;2022-12-18T06:11:20;8.77;;;3.10;;
57101;SDS011;42982;54.558;18.508;2022-12-18T06:12:24;7.53;;;3.53;;
57101;SDS011;42982;54.558;18.508;2022-12-18T06:13:27;9.27;;;3.00;;
57101;SDS011;42982;54.558;18.508;2022-12-18T06:14:29;7.83;;;3.00;;
57101;SDS011;42982;54.558;18.508;2022-12-18T06:15:31;10.00;;;3.43;;
57101;SDS011;42982;54.558;18.508;2022-12-18T06:16:36;7.60;;;3.40;;
57101;SDS011;42982;54.558;18.508;2022-12-18T06:17:40;8.30;;;3.23;;
57101;SDS011;42982;54.558;18.508;2022-12-18T06:18:43;7.17;;;3.43;;
57101;SDS011;42982;54.558;18.508;2022-12-18T06:19:45;8.30;;;3.13;;
57101;SDS011;42982;54.558;18.508;2022-12-18T06:20:55;11.17;;;3.60;;
57101;SDS011;42982;54.558;18.508;2022-12-18T06:21:57;8.77;;;3.33;;
57101;SDS011;42982;54.558;18.508;2022-12-18T06:23:00;9.67;;;3.63;;
57101;SDS011;42982;54.558;18.508;2022-12-18T06:24:03;9.17;;;3.97;;
57101;SDS011;42982;54.558;18.508;2022-12-18T06:25:09;9.20;;;3.40;;
57101;SDS011;42982;54.558;18.508;2022-12-18T06:26:14;10.40;;;3.57;;
57101;SDS011;42982;54.558;18.508;2022-12-18T06:27:16;11.57;;;3.50;;
57101;SDS011;42982;54.558;18.508;2022-12-18T06:28:21;11.50;;;3.57;;
57101;SDS011;42982;54.558;18.508;2022-12-18T06:29:23;9.20;;;3.27;;
57101;SDS011;42982;54.558;18.508;2022-12-18T06:30:26;9.73;;;3.33;;
57101;SDS011;42982;54.558;18.508;2022-12-18T06:31:29;10.53;;;3.97;;
57101;SDS011;42982;54.558;18.508;2022-12-18T06:32:32;10.47;;;3.50;;
57101;SDS011;42982;54.558;18.508;2022-12-18T06:33:37;10.80;;;3.77;;
57101;SDS011;42982;54.558;18.508;2022-12-18T06:34:40;13.20;;;4.10;;
57101;SDS011;42982;54.558;18.508;2022-12-18T06:35:42;13.73;;;4.03;;
57101;SDS011;42982;54.558;18.508;2022-12-18T06:36:45;9.63;;;3.87;;
57101;SDS011;42982;54.558;18.508;2022-12-18T06:37:50;12.67;;;3.57;;
57101;SDS011;42982;54.558;18.508;2022-12-18T06:38:55;8.67;;;3.30;;
57101;SDS011;42982;54.558;18.508;2022-12-18T06:39:58;10.17;;;3.67;;
57101;SDS011;42982;54.558;18.508;2022-12-18T06:41:12;9.60;;;3.80;;
57101;SDS011;42982;54.558;18.508;2022-12-18T06:42:32;9.33;;;3.30;;
57101;SDS011;42982;54.558;18.508;2022-12-18T06:43:34;10.37;;;4.03;;
57101;SDS011;42982;54.558;18.508;2022-12-18T06:44:37;8.80;;;3.43;;
57101;SDS011;42982;54.558;18.508;2022-12-18T06:45:46;8.93;;;3.43;;
57101;SDS011;42982;54.558;18.508;2022-12-18T06:46:54;8.57;;;3.33;;
57101;SDS011;42982;54.558;18.508;2022-12-18T06:47:56;9.07;;;3.50;;
57101;SDS011;42982;54.558;18.508;2022-12-18T06:48:58;10.43;;;3.90;;
57101;SDS011;42982;54.558;18.508;2022-12-18T06:50:03;12.43;;;3.67;;
57101;SDS011;42982;54.558;18.508;2022-12-18T06:51:10;9.00;;;3.73;;
57101;SDS011;42982;54.558;18.508;2022-12-18T06:52:11;9.30;;;3.90;;
57101;SDS011;42982;54.558;18.508;2022-12-18T06:53:15;9.90;;;3.70;;
57101;SDS011;42982;54.558;18.508;2022-12-18T06:54:17;10.60;;;4.40;;